Time;durP1;ratioP1;P1;durP2;ratioP2;P2;SDS_P1;SDS_P2;PMS_P1;PMS_P2;Temp;Humidity;BMP_temperature;BMP_pressure;BME280_temperature;BME280_humidity;BME280_pressure;Samples;Min_cycle;Max_cycle;Signal;HPM_P1;HPM_P2
2023/10/09 00:01:26;;;;;;;;;;;20.50;49.50;;;;;;5028261;28;20024;-66
2023/10/09 00:03:55;;;;;;;;;;;20.60;49.60;;;;;;5032949;28;19925;-66
2023/10/09 00:06:24;;;;;;;;;;;20.50;49.50;;;;;;5011640;28;19929;-65
2023/10/09 00:08:54;;;;;;;;;;;20.50;49.50;;;;;;5015081;28;19947;-66
2023/10/09 00:11:26;;;;;;;;;;;20.50;49.60;;;;;;5011516;28;20019;-66
2023/10/09 00:13:57;;;;;;;;;;;20.50;49.60;;;;;;5015301;28;20024;-66
2023/10/09 00:16:32;;;;;;;;;;;20.50;49.60;;;;;;5011914;28;20635;-66
2023/10/09 00:19:14;;;;;;;;;;;20.50;49.60;;;;;;5008413;28;20359;-66
2023/10/09 00:21:41;;;;;;;;;;;20.50;49.70;;;;;;5014916;28;19929;-66
2023/10/09 00:24:13;;;;;;;;;;;20.50;49.70;;;;;;5013854;28;19921;-66
2023/10/09 00:26:45;;;;;;;;;;;20.50;49.80;;;;;;5014503;28;19921;-66
2023/10/09 00:29:15;;;;;;;;;;;20.50;49.80;;;;;;5014604;28;19927;-66
2023/10/09 00:31:49;;;;;;;;;;;20.50;49.80;;;;;;5012456;28;19925;-66
2023/10/09 00:34:19;;;;;;;;;;;20.50;49.90;;;;;;5014378;28;20323;-66
2023/10/09 00:36:51;;;;;;;;;;;20.50;49.90;;;;;;5013949;28;19925;-66
2023/10/09 00:39:31;;;;;;;;;;;20.50;49.90;;;;;;5012670;28;19921;-66
2023/10/09 00:42:00;;;;;;;;;;;20.50;50.00;;;;;;5011483;28;19975;-67
2023/10/09 00:44:37;;;;;;;;;;;20.50;50.00;;;;;;5020929;28;19925;-66
2023/10/09 00:47:10;;;;;;;;;;;20.50;50.00;;;;;;5025670;28;19943;-66
2023/10/09 00:49:43;;;;;;;;;;;20.50;50.20;;;;;;5027601;28;19921;-66
2023/10/09 00:52:17;;;;;;;;;;;20.50;50.10;;;;;;5012245;28;19921;-66
2023/10/09 00:54:50;;;;;;;;;;;20.50;50.10;;;;;;5014212;28;19921;-66
2023/10/09 00:57:18;;;;;;;;;;;20.50;50.10;;;;;;5014547;28;19925;-66
2023/10/09 00:59:46;;;;;;;;;;;20.50;50.20;;;;;;5006531;28;20016;-66
2023/10/09 01:02:18;;;;;;;;;;;20.50;50.20;;;;;;5027850;28;19921;-66
2023/10/09 01:04:47;;;;;;;;;;;20.50;50.20;;;;;;5012296;28;19933;-66
2023/10/09 01:07:16;;;;;;;;;;;20.50;50.30;;;;;;5014614;28;19975;-66
2023/10/09 01:09:44;;;;;;;;;;;20.50;50.30;;;;;;5031701;28;20554;-66
2023/10/09 01:12:16;;;;;;;;;;;20.40;50.30;;;;;;5031740;28;19927;-66
2023/10/09 01:14:43;;;;;;;;;;;20.40;50.30;;;;;;5013886;28;19921;-66
2023/10/09 01:17:11;;;;;;;;;;;20.40;50.30;;;;;;5014129;28;19921;-66
2023/10/09 01:19:38;;;;;;;;;;;20.40;50.30;;;;;;5013864;28;19928;-66
2023/10/09 01:22:13;;;;;;;;;;;20.40;50.30;;;;;;5013503;28;19925;-66
2023/10/09 01:24:41;;;;;;;;;;;20.40;50.30;;;;;;5031586;28;19921;-66
2023/10/09 01:27:14;;;;;;;;;;;20.40;50.40;;;;;;5011702;28;19929;-66
2023/10/09 01:29:41;;;;;;;;;;;20.40;50.40;;;;;;5011644;28;20036;-66
2023/10/09 01:32:16;;;;;;;;;;;20.40;50.40;;;;;;5028597;28;19925;-66
2023/10/09 01:34:44;;;;;;;;;;;20.40;50.40;;;;;;5007945;28;20023;-66
2023/10/09 01:37:18;;;;;;;;;;;20.40;50.40;;;;;;5030420;28;19921;-66
2023/10/09 01:39:48;;;;;;;;;;;20.40;50.50;;;;;;5009469;28;19928;-66
2023/10/09 01:42:23;;;;;;;;;;;20.40;50.50;;;;;;5010511;28;19921;-67
2023/10/09 01:44:50;;;;;;;;;;;20.40;50.40;;;;;;5030361;28;19921;-66
2023/10/09 01:47:18;;;;;;;;;;;20.40;50.50;;;;;;5029473;28;19921;-66
2023/10/09 01:49:49;;;;;;;;;;;20.40;50.50;;;;;;5011711;28;19983;-67
2023/10/09 01:52:16;;;;;;;;;;;20.40;50.50;;;;;;5028312;28;19935;-66
2023/10/09 01:54:47;;;;;;;;;;;20.40;50.50;;;;;;5008350;28;19979;-66
2023/10/09 01:57:16;;;;;;;;;;;20.40;50.50;;;;;;5010929;28;19928;-66
2023/10/09 01:59:47;;;;;;;;;;;20.40;50.50;;;;;;5010653;28;19987;-66
2023/10/09 02:02:25;;;;;;;;;;;20.40;50.50;;;;;;5012874;28;19925;-66
2023/10/09 02:04:52;;;;;;;;;;;20.40;50.50;;;;;;5026448;28;19925;-66
2023/10/09 02:07:29;;;;;;;;;;;20.40;50.50;;;;;;5025556;28;20040;-66
2023/10/09 02:09:56;;;;;;;;;;;20.40;50.50;;;;;;5011784;28;19928;-66
2023/10/09 02:12:24;;;;;;;;;;;20.40;50.50;;;;;;5012281;28;19964;-66
2023/10/09 02:14:53;;;;;;;;;;;20.30;50.40;;;;;;5007791;28;19921;-65
2023/10/09 02:17:24;;;;;;;;;;;20.30;50.40;;;;;;5030112;28;19979;-66
2023/10/09 02:19:52;;;;;;;;;;;20.30;50.40;;;;;;5010442;28;19921;-65
2023/10/09 02:22:19;;;;;;;;;;;20.30;50.40;;;;;;5008054;28;19953;-65
2023/10/09 02:24:57;;;;;;;;;;;20.30;50.40;;;;;;5029847;28;20429;-65
2023/10/09 02:27:45;;;;;;;;;;;20.30;50.40;;;;;;5010372;28;19932;-66
2023/10/09 02:30:26;;;;;;;;;;;20.30;50.40;;;;;;5008365;28;19921;-65
2023/10/09 02:32:59;;;;;;;;;;;20.30;50.40;;;;;;5011164;28;20311;-65
2023/10/09 02:38:14;;;;;;;;;;;20.30;50.30;;;;;;5022758;28;19925;-66
2023/10/09 02:40:53;;;;;;;;;;;20.30;50.30;;;;;;5009658;28;19928;-65
2023/10/09 02:43:28;;;;;;;;;;;20.30;50.30;;;;;;5026852;28;19951;-67
2023/10/09 02:45:57;;;;;;;;;;;20.20;50.20;;;;;;5010779;28;19925;-66
2023/10/09 02:48:26;;;;;;;;;;;20.20;50.20;;;;;;5028503;28;19921;-68
2023/10/09 02:50:54;;;;;;;;;;;20.20;50.10;;;;;;5027581;28;19925;-66
2023/10/09 02:53:28;;;;;;;;;;;20.20;50.10;;;;;;5011817;28;20450;-66
2023/10/09 02:56:12;;;;;;;;;;;20.20;50.10;;;;;;5012341;28;19936;-66
2023/10/09 02:58:42;;;;;;;;;;;20.20;50.10;;;;;;5005768;28;19921;-66
2023/10/09 03:01:13;;;;;;;;;;;20.20;50.00;;;;;;5013890;28;19921;-66
2023/10/09 03:03:41;;;;;;;;;;;20.20;50.10;;;;;;5032972;28;19933;-66
2023/10/09 03:06:11;;;;;;;;;;;20.20;50.00;;;;;;5015106;28;19933;-66
2023/10/09 03:08:38;;;;;;;;;;;20.20;50.00;;;;;;5015680;28;19920;-66
2023/10/09 03:11:05;;;;;;;;;;;20.20;50.00;;;;;;5014346;28;19961;-66
2023/10/09 03:13:33;;;;;;;;;;;20.20;50.00;;;;;;5014549;28;19921;-66
2023/10/09 03:16:02;;;;;;;;;;;20.20;50.00;;;;;;5016384;28;19987;-65
2023/10/09 03:18:28;;;;;;;;;;;20.20;50.00;;;;;;5015606;28;19925;-66
2023/10/09 03:20:55;;;;;;;;;;;20.20;50.00;;;;;;5014152;28;20509;-66
2023/10/09 03:23:22;;;;;;;;;;;20.20;50.00;;;;;;5027332;28;19921;-66
2023/10/09 03:25:51;;;;;;;;;;;20.20;50.00;;;;;;5033516;28;19921;-66
2023/10/09 03:28:17;;;;;;;;;;;20.20;50.00;;;;;;5034153;28;19929;-66
2023/10/09 03:30:46;;;;;;;;;;;20.20;50.00;;;;;;5020866;28;19922;-66
2023/10/09 03:33:15;;;;;;;;;;;20.20;50.00;;;;;;5016223;28;19921;-66
2023/10/09 03:35:42;;;;;;;;;;;20.20;50.00;;;;;;5015792;28;19921;-66
2023/10/09 03:38:16;;;;;;;;;;;20.10;49.90;;;;;;5015725;28;20419;-66
2023/10/09 03:40:43;;;;;;;;;;;20.10;49.80;;;;;;5032192;28;19964;-66
2023/10/09 03:43:11;;;;;;;;;;;20.10;49.80;;;;;;5015715;28;20385;-66
2023/10/09 03:45:45;;;;;;;;;;;20.10;49.80;;;;;;5015092;28;19983;-66
2023/10/09 03:48:20;;;;;;;;;;;20.10;49.80;;;;;;5014973;28;19926;-65
2023/10/09 03:50:48;;;;;;;;;;;20.10;49.80;;;;;;5014501;28;19936;-66
2023/10/09 03:53:15;;;;;;;;;;;20.10;49.80;;;;;;5014696;28;20016;-65
2023/10/09 03:55:42;;;;;;;;;;;20.10;49.80;;;;;;5013001;28;19983;-66
2023/10/09 03:58:11;;;;;;;;;;;20.10;49.80;;;;;;5031639;28;19928;-66
2023/10/09 04:00:44;;;;;;;;;;;20.10;49.80;;;;;;5021652;28;19927;-66
2023/10/09 04:03:11;;;;;;;;;;;20.10;49.80;;;;;;5015688;28;19927;-65
2023/10/09 04:05:40;;;;;;;;;;;20.10;50.30;;;;;;5025114;28;19921;-66
2023/10/09 04:08:12;;;;;;;;;;;20.10;49.70;;;;;;5015573;28;19925;-66
2023/10/09 04:10:51;;;;;;;;;;;20.10;49.70;;;;;;5032623;28;20008;-66
2023/10/09 04:13:22;;;;;;;;;;;20.10;49.80;;;;;;5014556;28;19936;-66
2023/10/09 04:15:52;;;;;;;;;;;20.10;49.80;;;;;;5014252;28;19925;-66
2023/10/09 04:18:28;;;;;;;;;;;20.10;49.70;;;;;;5030543;28;19921;-66
2023/10/09 04:21:18;;;;;;;;;;;20.10;49.70;;;;;;5009585;28;19921;-66
2023/10/09 04:26:29;;;;;;;;;;;20.10;49.70;;;;;;5011722;28;19925;-66
2023/10/09 04:28:55;;;;;;;;;;;20.10;49.80;;;;;;5015283;28;20248;-66
2023/10/09 04:31:31;;;;;;;;;;;20.10;49.70;;;;;;5007903;28;19932;-66
2023/10/09 04:34:21;;;;;;;;;;;20.10;49.70;;;;;;5014712;28;19921;-66
2023/10/09 04:36:49;;;;;;;;;;;20.10;49.70;;;;;;5032065;28;19921;-65
2023/10/09 04:39:35;;;;;;;;;;;20.10;49.70;;;;;;5028302;28;19921;-65
2023/10/09 04:45:19;;;;;;;;;;;20.10;49.70;;;;;;4955259;28;19926;-66
2023/10/09 04:47:57;;;;;;;;;;;20.00;49.60;;;;;;5020291;28;20454;-66
2023/10/09 04:50:45;;;;;;;;;;;20.00;49.60;;;;;;5013939;28;19921;-65
2023/10/09 04:53:22;;;;;;;;;;;20.00;49.60;;;;;;5014656;28;19920;-66
2023/10/09 04:55:57;;;;;;;;;;;20.00;49.60;;;;;;5014141;28;19921;-65
2023/10/09 04:58:27;;;;;;;;;;;20.00;49.50;;;;;;5010176;28;20111;-66
2023/10/09 05:01:12;;;;;;;;;;;20.00;49.50;;;;;;5012562;28;19921;-66
2023/10/09 05:03:45;;;;;;;;;;;20.00;49.50;;;;;;5031424;28;19928;-66
2023/10/09 05:06:21;;;;;;;;;;;20.00;49.40;;;;;;5009106;28;20306;-65
2023/10/09 05:08:48;;;;;;;;;;;20.00;49.40;;;;;;5031147;28;19928;-66
2023/10/09 05:11:34;;;;;;;;;;;20.00;49.50;;;;;;5013794;28;19925;-66
2023/10/09 05:14:11;;;;;;;;;;;20.00;49.50;;;;;;5013715;28;19921;-66
2023/10/09 05:16:51;;;;;;;;;;;20.00;49.50;;;;;;5030118;28;19921;-65
2023/10/09 05:19:33;;;;;;;;;;;20.00;49.60;;;;;;5013865;28;19929;-66
2023/10/09 05:22:04;;;;;;;;;;;20.00;49.60;;;;;;5023660;28;19928;-66
2023/10/09 05:24:43;;;;;;;;;;;20.00;49.60;;;;;;5029614;28;20024;-67
2023/10/09 05:27:45;;;;;;;;;;;20.00;49.60;;;;;;5022294;28;19927;-66
2023/10/09 05:30:24;;;;;;;;;;;20.00;49.60;;;;;;5012616;28;19975;-66
2023/10/09 05:32:54;;;;;;;;;;;20.00;49.60;;;;;;5009251;28;19921;-66
2023/10/09 05:35:29;;;;;;;;;;;20.00;49.60;;;;;;5013421;28;20413;-66
2023/10/09 05:38:01;;;;;;;;;;;20.00;49.60;;;;;;5013335;28;20008;-66
2023/10/09 05:40:31;;;;;;;;;;;20.00;49.70;;;;;;5012668;28;19972;-67
2023/10/09 05:43:02;;;;;;;;;;;20.00;49.70;;;;;;5013335;28;20274;-66
2023/10/09 05:51:41;;;;;;;;;;;20.00;49.70;;;;;;5013327;28;20109;-67
2023/10/09 05:54:23;;;;;;;;;;;20.00;49.70;;;;;;5012447;28;19927;-67
2023/10/09 06:05:40;;;;;;;;;;;20.00;49.80;;;;;;5029104;28;20579;-66
2023/10/09 06:08:04;;;;;;;;;;;20.00;49.80;;;;;;5028313;28;20394;-66
2023/10/09 06:10:39;;;;;;;;;;;20.00;49.80;;;;;;5028388;28;19921;-66
2023/10/09 06:13:06;;;;;;;;;;;20.00;49.80;;;;;;5028982;28;19940;-66
2023/10/09 06:18:34;;;;;;;;;;;20.00;49.90;;;;;;5028957;28;19965;-67
2023/10/09 06:24:18;;;;;;;;;;;20.00;49.90;;;;;;4979969;28;20725;-67
2023/10/09 06:27:11;;;;;;;;;;;20.00;50.00;;;;;;4984216;28;19928;-67
2023/10/09 06:29:50;;;;;;;;;;;20.00;50.00;;;;;;5013438;28;19929;-67
2023/10/09 06:32:34;;;;;;;;;;;20.00;50.00;;;;;;5009707;28;19921;-67
2023/10/09 06:38:21;;;;;;;;;;;20.00;50.00;;;;;;5039518;27;2127401;-69
2023/10/09 06:43:36;;;;;;;;;;;20.00;50.00;;;;;;5093152;28;20297;-70
2023/10/09 06:48:55;;;;;;;;;;;20.00;50.10;;;;;;5112681;28;20014;-74
2023/10/09 06:51:40;;;;;;;;;;;20.00;50.10;;;;;;5101208;28;19955;-71
2023/10/09 06:54:17;;;;;;;;;;;20.00;50.20;;;;;;5094780;28;19920;-73
2023/10/09 06:59:41;;;;;;;;;;;20.00;50.20;;;;;;5091089;28;19928;-73
2023/10/09 07:04:54;;;;;;;;;;;20.10;50.30;;;;;;5074058;28;19920;-75
2023/10/09 07:07:21;;;;;;;;;;;20.10;50.30;;;;;;5069308;28;19921;-72
2023/10/09 07:12:32;;;;;;;;;;;20.10;50.30;;;;;;5087266;28;19927;-73
2023/10/09 07:16:10;;;;;;;;;;;20.10;50.30;;;;;;5088232;28;19924;-73
2023/10/09 07:17:52;;;;;;;;;;;20.10;50.30;;;;;;5102087;28;20269;-74
2023/10/09 07:23:13;;;;;;;;;;;20.10;50.30;;;;;;5067127;28;19928;-73
2023/10/09 07:25:41;;;;;;;;;;;20.10;50.30;;;;;;5080448;28;19942;-72
2023/10/09 07:28:28;;;;;;;;;;;20.10;50.40;;;;;;5090757;28;19934;-70
2023/10/09 07:30:57;;;;;;;;;;;20.10;50.40;;;;;;5069655;28;19924;-69
2023/10/09 07:33:33;;;;;;;;;;;20.10;50.40;;;;;;5083248;28;19920;-69
2023/10/09 07:36:06;;;;;;;;;;;20.10;50.40;;;;;;5075384;28;19920;-70
2023/10/09 07:38:35;;;;;;;;;;;20.10;50.40;;;;;;5088732;28;19969;-70
2023/10/09 07:43:46;;;;;;;;;;;20.10;50.40;;;;;;5100266;28;19920;-70
2023/10/09 07:46:30;;;;;;;;;;;20.10;50.50;;;;;;5087056;28;20350;-71
2023/10/09 07:48:57;;;;;;;;;;;20.10;50.40;;;;;;5061954;28;19931;-70
2023/10/09 07:51:30;;;;;;;;;;;20.10;50.40;;;;;;5076753;28;19927;-70
2023/10/09 07:54:06;;;;;;;;;;;20.20;51.10;;;;;;5079412;28;19925;-71
2023/10/09 07:56:38;;;;;;;;;;;20.10;50.50;;;;;;5050567;28;19920;-70
2023/10/09 07:59:10;;;;;;;;;;;20.20;51.10;;;;;;5069981;28;19920;-70
2023/10/09 08:01:38;;;;;;;;;;;20.20;50.60;;;;;;5074259;28;19924;-70
2023/10/09 08:04:10;;;;;;;;;;;20.20;50.60;;;;;;5074987;28;19924;-70
2023/10/09 08:06:42;;;;;;;;;;;20.20;50.60;;;;;;5054376;28;19974;-70
2023/10/09 08:09:17;;;;;;;;;;;20.20;50.60;;;;;;5066171;28;19920;-71
2023/10/09 08:12:38;;;;;;;;;;;20.20;50.60;;;;;;5070098;28;19927;-70
2023/10/09 08:15:20;;;;;;;;;;;20.20;50.60;;;;;;5069249;28;19928;-70
2023/10/09 08:17:50;;;;;;;;;;;20.20;50.60;;;;;;5065825;28;19921;-74
2023/10/09 08:20:17;;;;;;;;;;;20.20;50.60;;;;;;5072104;28;19977;-73
2023/10/09 08:22:44;;;;;;;;;;;20.20;50.60;;;;;;5083569;28;19920;-71
2023/10/09 08:25:26;;;;;;;;;;;20.30;50.80;;;;;;5066692;28;19920;-71
2023/10/09 08:27:57;;;;;;;;;;;20.20;50.70;;;;;;5073303;28;19921;-73
2023/10/09 08:30:40;;;;;;;;;;;20.30;50.80;;;;;;5080451;28;19919;-71
2023/10/09 08:35:48;;;;;;;;;;;20.30;50.90;;;;;;5081006;28;19927;-71
2023/10/09 08:38:19;;;;;;;;;;;20.20;50.90;;;;;;5075510;28;20012;-71
2023/10/09 08:40:47;;;;;;;;;;;20.20;50.90;;;;;;5072329;28;19971;-74
2023/10/09 08:43:17;;;;;;;;;;;20.20;51.00;;;;;;5064474;28;19921;-72
2023/10/09 08:45:46;;;;;;;;;;;20.20;51.00;;;;;;5061819;28;19940;-69
2023/10/09 08:48:15;;;;;;;;;;;20.20;51.00;;;;;;5073365;28;19920;-71
2023/10/09 08:50:42;;;;;;;;;;;20.20;51.10;;;;;;5073244;28;19920;-70
2023/10/09 08:53:10;;;;;;;;;;;20.20;51.00;;;;;;5055066;28;19921;-72
2023/10/09 08:55:37;;;;;;;;;;;20.30;51.10;;;;;;5068753;28;19924;-72
2023/10/09 08:58:05;;;;;;;;;;;20.20;51.10;;;;;;5067553;28;19920;-71
2023/10/09 09:00:34;;;;;;;;;;;20.20;51.10;;;;;;5069722;28;19927;-72
2023/10/09 09:03:01;;;;;;;;;;;20.20;51.10;;;;;;5086614;28;19985;-72
2023/10/09 09:05:29;;;;;;;;;;;20.20;51.20;;;;;;5066661;28;19925;-71
2023/10/09 09:07:59;;;;;;;;;;;20.30;51.20;;;;;;5052864;28;19992;-71
2023/10/09 09:10:34;;;;;;;;;;;20.20;51.10;;;;;;5070189;28;19924;-71
2023/10/09 09:13:03;;;;;;;;;;;20.30;51.20;;;;;;5066018;28;19921;-71
2023/10/09 09:15:30;;;;;;;;;;;20.30;51.30;;;;;;5061957;28;19979;-71
2023/10/09 09:18:10;;;;;;;;;;;20.30;51.40;;;;;;5052523;28;19921;-71
2023/10/09 09:20:40;;;;;;;;;;;20.30;51.40;;;;;;5060975;28;19924;-71
2023/10/09 09:23:12;;;;;;;;;;;20.30;51.50;;;;;;5070477;28;19921;-68
2023/10/09 09:25:45;;;;;;;;;;;20.30;51.50;;;;;;5071306;28;19942;-70
2023/10/09 09:28:19;;;;;;;;;;;20.30;51.60;;;;;;5058251;28;19960;-72
2023/10/09 09:30:50;;;;;;;;;;;20.20;51.50;;;;;;5055248;28;19920;-69
2023/10/09 09:33:26;;;;;;;;;;;20.30;51.60;;;;;;5057063;28;19924;-72
2023/10/09 09:35:57;;;;;;;;;;;20.30;51.60;;;;;;5070322;28;20022;-73
2023/10/09 09:38:24;;;;;;;;;;;20.30;51.60;;;;;;5066696;28;19920;-72
2023/10/09 09:40:53;;;;;;;;;;;20.30;51.60;;;;;;5065734;28;19932;-73
2023/10/09 09:43:22;;;;;;;;;;;20.30;51.60;;;;;;5068076;28;19990;-73
2023/10/09 09:45:49;;;;;;;;;;;20.30;51.70;;;;;;5069155;28;19924;-72
2023/10/09 09:48:17;;;;;;;;;;;20.30;51.60;;;;;;5071558;28;19921;-72
2023/10/09 09:50:46;;;;;;;;;;;20.30;51.60;;;;;;5071870;28;19924;-72
2023/10/09 09:53:16;;;;;;;;;;;20.30;51.60;;;;;;5058260;28;19974;-70
2023/10/09 09:55:43;;;;;;;;;;;20.30;51.60;;;;;;5060262;28;19971;-73
2023/10/09 09:58:18;;;;;;;;;;;20.30;51.70;;;;;;5061307;28;20003;-72
2023/10/09 10:00:45;;;;;;;;;;;20.30;51.70;;;;;;5073059;28;19921;-72
2023/10/09 10:03:14;;;;;;;;;;;20.30;51.80;;;;;;5059261;28;19946;-70
2023/10/09 10:05:41;;;;;;;;;;;20.30;51.70;;;;;;5063650;28;19927;-69
2023/10/09 10:08:12;;;;;;;;;;;20.30;51.90;;;;;;5063406;28;20065;-74
2023/10/09 10:10:47;;;;;;;;;;;20.30;51.80;;;;;;5071630;28;19928;-73
2023/10/09 10:13:21;;;;;;;;;;;20.30;51.90;;;;;;5061618;28;19921;-72
2023/10/09 10:16:11;;;;;;;;;;;20.30;51.90;;;;;;5055258;28;19928;-73
2023/10/09 10:18:53;;;;;;;;;;;20.30;52.00;;;;;;5055741;28;19927;-73
2023/10/09 10:21:33;;;;;;;;;;;20.40;52.10;;;;;;5061852;28;20003;-73
2023/10/09 10:24:14;;;;;;;;;;;20.30;52.20;;;;;;5069864;28;19954;-73
2023/10/09 10:26:41;;;;;;;;;;;20.30;52.20;;;;;;5070096;28;19926;-71
2023/10/09 10:29:22;;;;;;;;;;;20.30;52.30;;;;;;5057368;28;19921;-72
2023/10/09 10:31:54;;;;;;;;;;;20.40;52.40;;;;;;5062486;28;20027;-71
2023/10/09 10:34:23;;;;;;;;;;;20.30;52.20;;;;;;5060380;28;19921;-74
2023/10/09 10:36:52;;;;;;;;;;;20.30;52.30;;;;;;5059436;28;19925;-74
2023/10/09 10:39:35;;;;;;;;;;;20.30;52.30;;;;;;5061087;28;19929;-73
2023/10/09 10:42:04;;;;;;;;;;;20.30;52.20;;;;;;5066074;28;19963;-74
2023/10/09 10:44:37;;;;;;;;;;;20.30;52.20;;;;;;5072818;28;19995;-74
2023/10/09 10:47:04;;;;;;;;;;;20.40;52.30;;;;;;5069875;28;19967;-74
2023/10/09 10:49:37;;;;;;;;;;;20.30;52.30;;;;;;5066267;28;19929;-75
2023/10/09 10:52:18;;;;;;;;;;;20.40;52.40;;;;;;5069304;28;19920;-67
2023/10/09 10:54:47;;;;;;;;;;;20.40;53.00;;;;;;5066648;28;19920;-70
2023/10/09 10:57:52;;;;;;;;;;;20.40;52.30;;;;;;5069813;28;19921;-70
2023/10/09 11:03:13;;;;;;;;;;;20.40;52.60;;;;;;5059266;28;19931;-72
2023/10/09 11:05:43;;;;;;;;;;;20.40;52.50;;;;;;5056405;28;19928;-71
2023/10/09 11:08:10;;;;;;;;;;;20.40;52.40;;;;;;5050422;28;19920;-71
2023/10/09 11:10:49;;;;;;;;;;;20.40;52.60;;;;;;5068988;28;19921;-70
2023/10/09 11:13:33;;;;;;;;;;;20.40;52.50;;;;;;5061564;28;19966;-72
2023/10/09 11:18:42;;;;;;;;;;;20.40;52.50;;;;;;5077094;28;19967;-71
2023/10/09 11:21:31;;;;;;;;;;;20.40;52.50;;;;;;5061239;28;19932;-72
2023/10/09 11:24:24;;;;;;;;;;;20.40;52.60;;;;;;5061916;28;19938;-71
2023/10/09 11:26:55;;;;;;;;;;;20.40;52.50;;;;;;5053803;28;19920;-71
2023/10/09 11:29:23;;;;;;;;;;;20.40;52.50;;;;;;5059559;28;20035;-72
2023/10/09 11:32:00;;;;;;;;;;;20.40;52.50;;;;;;5066566;28;19920;-69
2023/10/09 11:34:29;;;;;;;;;;;20.40;52.50;;;;;;5070272;28;19924;-73
2023/10/09 11:36:58;;;;;;;;;;;20.50;52.50;;;;;;5067332;28;19921;-73
2023/10/09 11:39:31;;;;;;;;;;;20.50;52.50;;;;;;5058780;28;19921;-76
2023/10/09 11:42:06;;;;;;;;;;;20.50;52.50;;;;;;5065001;28;19943;-76
2023/10/09 11:44:39;;;;;;;;;;;20.50;52.70;;;;;;5074422;28;19920;-76
2023/10/09 11:47:22;;;;;;;;;;;20.50;52.80;;;;;;5069199;28;19924;-76
2023/10/09 11:49:56;;;;;;;;;;;20.50;52.70;;;;;;5062623;28;19972;-76
2023/10/09 11:52:38;;;;;;;;;;;20.50;52.70;;;;;;5082668;28;19920;-76
2023/10/09 11:55:06;;;;;;;;;;;20.50;52.70;;;;;;5077849;28;19920;-75
2023/10/09 11:57:35;;;;;;;;;;;20.50;52.70;;;;;;5063804;28;19921;-76
2023/10/09 12:00:06;;;;;;;;;;;20.50;52.80;;;;;;5070030;28;19928;-75
2023/10/09 12:02:43;;;;;;;;;;;20.50;52.80;;;;;;5052771;28;19933;-69
2023/10/09 12:05:16;;;;;;;;;;;20.50;52.80;;;;;;5062147;28;19924;-68
2023/10/09 12:07:44;;;;;;;;;;;20.50;52.80;;;;;;5071336;28;19921;-72
2023/10/09 12:10:13;;;;;;;;;;;20.50;53.10;;;;;;5066491;28;20285;-71
2023/10/09 12:12:46;;;;;;;;;;;20.50;52.90;;;;;;5054471;28;19928;-72
2023/10/09 12:15:17;;;;;;;;;;;20.50;52.90;;;;;;5064791;28;20008;-73
2023/10/09 12:17:44;;;;;;;;;;;20.50;53.00;;;;;;5073252;28;20362;-74
2023/10/09 12:20:29;;;;;;;;;;;20.60;53.10;;;;;;5062242;28;19920;-72
2023/10/09 12:22:58;;;;;;;;;;;20.50;53.00;;;;;;5068452;28;19920;-73
2023/10/09 12:25:25;;;;;;;;;;;20.50;52.90;;;;;;5075585;28;20019;-72
2023/10/09 12:27:57;;;;;;;;;;;20.50;53.00;;;;;;5061918;28;19927;-72
2023/10/09 12:30:26;;;;;;;;;;;20.60;53.10;;;;;;5063853;28;19921;-71
2023/10/09 12:32:54;;;;;;;;;;;20.60;53.20;;;;;;5067710;28;19927;-70
2023/10/09 12:35:20;;;;;;;;;;;20.60;53.10;;;;;;5083820;28;19927;-71
2023/10/09 12:37:49;;;;;;;;;;;20.60;53.20;;;;;;5072067;28;19936;-70
2023/10/09 12:40:23;;;;;;;;;;;20.60;53.20;;;;;;5067766;28;19921;-72
2023/10/09 12:42:53;;;;;;;;;;;20.60;53.20;;;;;;5068759;28;19983;-70
2023/10/09 12:45:25;;;;;;;;;;;20.60;53.20;;;;;;5072829;28;19943;-71
2023/10/09 12:47:53;;;;;;;;;;;20.60;53.20;;;;;;5053741;28;19939;-69
2023/10/09 12:50:27;;;;;;;;;;;20.60;53.20;;;;;;5067004;28;19994;-69
2023/10/09 12:52:55;;;;;;;;;;;20.60;53.30;;;;;;5076094;28;19922;-71
2023/10/09 12:55:21;;;;;;;;;;;20.60;53.40;;;;;;5061764;28;19927;-71
2023/10/09 12:57:51;;;;;;;;;;;20.60;53.30;;;;;;5053728;28;19921;-70
2023/10/09 13:00:25;;;;;;;;;;;20.60;53.30;;;;;;5062957;28;19927;-71
2023/10/09 13:02:52;;;;;;;;;;;20.60;53.30;;;;;;5058629;28;19939;-70
2023/10/09 13:05:26;;;;;;;;;;;20.70;53.40;;;;;;5082071;28;19920;-71
2023/10/09 13:07:52;;;;;;;;;;;20.60;53.50;;;;;;5055096;28;19939;-71
2023/10/09 13:10:19;;;;;;;;;;;20.60;53.30;;;;;;5077584;28;19921;-71
2023/10/09 13:12:46;;;;;;;;;;;20.70;53.50;;;;;;5076242;28;19920;-71
2023/10/09 13:15:13;;;;;;;;;;;20.70;53.40;;;;;;5054768;28;19982;-70
2023/10/09 13:17:42;;;;;;;;;;;20.70;53.60;;;;;;5063595;28;20015;-71
2023/10/09 13:20:13;;;;;;;;;;;20.70;53.50;;;;;;5067882;28;19943;-71
2023/10/09 13:22:40;;;;;;;;;;;20.70;53.50;;;;;;5068366;28;19921;-70
2023/10/09 13:25:14;;;;;;;;;;;20.70;54.20;;;;;;5068369;28;19926;-71
2023/10/09 13:27:42;;;;;;;;;;;20.70;53.60;;;;;;5064966;28;19927;-71
2023/10/09 13:30:21;;;;;;;;;;;20.70;53.60;;;;;;5053867;28;20003;-71
2023/10/09 13:32:50;;;;;;;;;;;20.70;53.70;;;;;;5064924;28;19987;-71
2023/10/09 13:35:18;;;;;;;;;;;20.70;53.90;;;;;;5051380;28;19921;-71
2023/10/09 13:37:53;;;;;;;;;;;20.70;53.80;;;;;;5051168;28;19925;-69
2023/10/09 13:40:26;;;;;;;;;;;20.70;53.80;;;;;;5050406;28;19931;-72
2023/10/09 13:42:58;;;;;;;;;;;20.70;53.90;;;;;;5068015;28;19921;-71
2023/10/09 13:45:26;;;;;;;;;;;20.70;53.80;;;;;;5056412;28;19924;-71
2023/10/09 13:47:55;;;;;;;;;;;20.70;53.80;;;;;;5064321;28;20007;-70
2023/10/09 13:50:28;;;;;;;;;;;20.70;53.80;;;;;;5050443;28;19959;-71
2023/10/09 13:52:56;;;;;;;;;;;20.70;53.90;;;;;;5056040;28;19924;-69
2023/10/09 13:55:23;;;;;;;;;;;20.80;54.10;;;;;;5073159;28;19924;-70
2023/10/09 13:57:50;;;;;;;;;;;20.80;54.10;;;;;;5057051;28;20100;-71
2023/10/09 14:00:32;;;;;;;;;;;20.80;54.10;;;;;;5063634;28;19921;-75
2023/10/09 14:03:01;;;;;;;;;;;20.80;54.10;;;;;;5061885;28;19927;-70
2023/10/09 14:05:28;;;;;;;;;;;20.80;54.10;;;;;;5054743;28;19952;-72
2023/10/09 14:07:59;;;;;;;;;;;20.80;54.10;;;;;;5055592;28;19967;-71
2023/10/09 14:10:30;;;;;;;;;;;20.80;54.80;;;;;;5054711;28;19920;-72
2023/10/09 14:12:56;;;;;;;;;;;20.80;54.20;;;;;;5082415;28;20011;-73
2023/10/09 14:15:24;;;;;;;;;;;20.80;54.10;;;;;;5081992;28;19920;-72
2023/10/09 14:17:55;;;;;;;;;;;20.80;54.20;;;;;;5070725;28;19993;-72
2023/10/09 14:20:32;;;;;;;;;;;20.80;54.20;;;;;;5086848;28;19920;-72
2023/10/09 14:23:06;;;;;;;;;;;20.80;54.20;;;;;;5072016;28;19970;-72
2023/10/09 14:25:33;;;;;;;;;;;20.80;54.30;;;;;;5071010;28;19921;-73
2023/10/09 14:27:59;;;;;;;;;;;20.80;54.20;;;;;;5051296;28;19920;-70
2023/10/09 14:30:33;;;;;;;;;;;20.80;54.20;;;;;;5059718;28;19921;-71
2023/10/09 14:33:02;;;;;;;;;;;20.80;54.30;;;;;;5070220;28;19929;-70
2023/10/09 14:35:31;;;;;;;;;;;20.80;54.30;;;;;;5066057;28;19927;-70
2023/10/09 14:38:01;;;;;;;;;;;20.80;54.30;;;;;;5062216;28;19920;-70
2023/10/09 14:40:31;;;;;;;;;;;20.80;54.40;;;;;;5068637;28;19920;-69
2023/10/09 14:42:58;;;;;;;;;;;20.80;54.60;;;;;;5059641;28;19921;-68
2023/10/09 14:45:25;;;;;;;;;;;20.90;54.50;;;;;;5066174;28;19943;-71
2023/10/09 14:47:53;;;;;;;;;;;20.80;54.70;;;;;;5072787;28;19929;-70
2023/10/09 14:50:22;;;;;;;;;;;20.80;54.60;;;;;;5050765;28;19921;-71
2023/10/09 14:52:50;;;;;;;;;;;20.90;54.60;;;;;;5052829;28;20431;-71
2023/10/09 14:55:20;;;;;;;;;;;20.90;54.70;;;;;;5085011;28;19955;-73
2023/10/09 14:57:49;;;;;;;;;;;20.90;54.90;;;;;;5059884;28;19921;-74
2023/10/09 15:00:22;;;;;;;;;;;20.90;54.80;;;;;;5076230;28;19920;-71
2023/10/09 15:02:50;;;;;;;;;;;20.90;54.90;;;;;;5060002;28;19921;-70
2023/10/09 15:05:17;;;;;;;;;;;20.90;54.80;;;;;;5041562;28;19927;-72
2023/10/09 15:07:45;;;;;;;;;;;20.90;55.00;;;;;;5064438;28;19921;-71
2023/10/09 15:10:15;;;;;;;;;;;20.90;55.00;;;;;;5077697;28;19927;-73
2023/10/09 15:12:46;;;;;;;;;;;20.90;54.90;;;;;;5077030;28;19924;-73
2023/10/09 15:15:14;;;;;;;;;;;20.90;55.00;;;;;;5078220;28;20020;-71
2023/10/09 15:17:43;;;;;;;;;;;20.90;55.00;;;;;;5076549;28;20019;-71
2023/10/09 15:20:13;;;;;;;;;;;20.90;55.10;;;;;;5072869;28;20015;-71
2023/10/09 15:22:40;;;;;;;;;;;20.90;55.10;;;;;;5077636;28;19982;-70
2023/10/09 15:25:07;;;;;;;;;;;20.90;55.10;;;;;;5058234;28;20362;-71
2023/10/09 15:27:39;;;;;;;;;;;20.90;55.20;;;;;;5061587;28;19928;-71
2023/10/09 15:30:07;;;;;;;;;;;20.90;55.30;;;;;;5066493;28;19992;-71
2023/10/09 15:32:34;;;;;;;;;;;20.90;55.20;;;;;;5071346;28;19920;-71
2023/10/09 15:35:03;;;;;;;;;;;20.90;55.30;;;;;;5073621;28;19931;-69
2023/10/09 15:37:30;;;;;;;;;;;20.90;55.40;;;;;;5073865;28;19920;-70
2023/10/09 15:39:57;;;;;;;;;;;21.00;55.50;;;;;;5075077;28;19927;-71
2023/10/09 15:42:24;;;;;;;;;;;20.90;55.90;;;;;;5056088;28;20299;-73
2023/10/09 15:44:54;;;;;;;;;;;20.90;56.80;;;;;;5060430;28;19920;-72